sensor_id;sensor_type;location;lat;lon;timestamp;P1;durP1;ratioP1;P2;durP2;ratioP2
28481;SDS011;15703;49.588;6.260;2024-03-06T00:02:13;11.43;;;7.33;;
28481;SDS011;15703;49.588;6.260;2024-03-06T00:04:35;11.37;;;8.33;;
28481;SDS011;15703;49.588;6.260;2024-03-06T00:06:59;11.43;;;7.60;;
28481;SDS011;15703;49.588;6.260;2024-03-06T00:09:21;9.47;;;7.47;;
28481;SDS011;15703;49.588;6.260;2024-03-06T00:11:44;10.23;;;7.00;;
28481;SDS011;15703;49.588;6.260;2024-03-06T00:14:06;8.60;;;6.67;;
28481;SDS011;15703;49.588;6.260;2024-03-06T00:16:29;7.73;;;6.93;;
28481;SDS011;15703;49.588;6.260;2024-03-06T00:18:51;6.87;;;5.97;;
28481;SDS011;15703;49.588;6.260;2024-03-06T00:21:14;10.40;;;6.70;;
28481;SDS011;15703;49.588;6.260;2024-03-06T00:23:36;7.63;;;5.70;;
28481;SDS011;15703;49.588;6.260;2024-03-06T00:25:59;7.10;;;6.33;;
28481;SDS011;15703;49.588;6.260;2024-03-06T00:28:21;6.47;;;5.87;;
28481;SDS011;15703;49.588;6.260;2024-03-06T00:30:44;6.83;;;5.63;;
28481;SDS011;15703;49.588;6.260;2024-03-06T00:33:06;5.37;;;4.87;;
28481;SDS011;15703;49.588;6.260;2024-03-06T00:35:28;7.93;;;5.57;;
28481;SDS011;15703;49.588;6.260;2024-03-06T00:37:51;5.17;;;4.67;;
28481;SDS011;15703;49.588;6.260;2024-03-06T00:40:15;6.87;;;5.17;;
28481;SDS011;15703;49.588;6.260;2024-03-06T00:42:37;7.07;;;5.00;;
28481;SDS011;15703;49.588;6.260;2024-03-06T00:45:02;6.30;;;5.07;;
28481;SDS011;15703;49.588;6.260;2024-03-06T00:47:25;8.27;;;4.83;;
28481;SDS011;15703;49.588;6.260;2024-03-06T00:49:48;4.93;;;4.40;;
28481;SDS011;15703;49.588;6.260;2024-03-06T00:52:10;5.17;;;4.67;;
28481;SDS011;15703;49.588;6.260;2024-03-06T00:54:32;6.70;;;4.80;;
28481;SDS011;15703;49.588;6.260;2024-03-06T00:56:55;4.67;;;4.27;;
28481;SDS011;15703;49.588;6.260;2024-03-06T00:59:19;5.17;;;4.67;;
28481;SDS011;15703;49.588;6.260;2024-03-06T01:01:41;6.07;;;4.60;;
28481;SDS011;15703;49.588;6.260;2024-03-06T01:04:04;8.13;;;4.80;;
28481;SDS011;15703;49.588;6.260;2024-03-06T01:06:26;5.87;;;4.90;;
28481;SDS011;15703;49.588;6.260;2024-03-06T01:08:49;5.23;;;4.73;;
28481;SDS011;15703;49.588;6.260;2024-03-06T01:11:11;5.73;;;5.13;;
28481;SDS011;15703;49.588;6.260;2024-03-06T01:13:36;5.20;;;4.70;;
28481;SDS011;15703;49.588;6.260;2024-03-06T01:15:58;6.10;;;4.90;;
28481;SDS011;15703;49.588;6.260;2024-03-06T01:18:21;5.80;;;4.80;;
28481;SDS011;15703;49.588;6.260;2024-03-06T01:20:44;6.47;;;5.37;;
28481;SDS011;15703;49.588;6.260;2024-03-06T01:23:06;6.43;;;5.63;;
28481;SDS011;15703;49.588;6.260;2024-03-06T01:25:28;6.33;;;4.73;;
28481;SDS011;15703;49.588;6.260;2024-03-06T01:27:51;5.10;;;4.67;;
28481;SDS011;15703;49.588;6.260;2024-03-06T01:30:13;5.73;;;5.03;;
28481;SDS011;15703;49.588;6.260;2024-03-06T01:32:36;6.13;;;5.43;;
28481;SDS011;15703;49.588;6.260;2024-03-06T01:34:58;5.40;;;5.00;;
28481;SDS011;15703;49.588;6.260;2024-03-06T01:37:21;6.57;;;5.40;;
28481;SDS011;15703;49.588;6.260;2024-03-06T01:39:43;5.93;;;5.43;;
28481;SDS011;15703;49.588;6.260;2024-03-06T01:42:06;5.77;;;5.20;;
28481;SDS011;15703;49.588;6.260;2024-03-06T01:44:28;4.73;;;4.30;;
28481;SDS011;15703;49.588;6.260;2024-03-06T01:46:50;5.80;;;4.70;;
28481;SDS011;15703;49.588;6.260;2024-03-06T01:49:13;7.07;;;5.00;;
28481;SDS011;15703;49.588;6.260;2024-03-06T01:51:53;8.70;;;5.27;;
28481;SDS011;15703;49.588;6.260;2024-03-06T01:54:16;5.87;;;4.30;;
28481;SDS011;15703;49.588;6.260;2024-03-06T01:56:39;7.57;;;4.60;;
28481;SDS011;15703;49.588;6.260;2024-03-06T01:59:05;8.37;;;5.20;;
28481;SDS011;15703;49.588;6.260;2024-03-06T02:01:27;6.07;;;4.77;;
28481;SDS011;15703;49.588;6.260;2024-03-06T02:03:51;7.47;;;5.03;;
28481;SDS011;15703;49.588;6.260;2024-03-06T02:06:14;4.80;;;4.40;;
28481;SDS011;15703;49.588;6.260;2024-03-06T02:08:41;5.50;;;4.67;;
28481;SDS011;15703;49.588;6.260;2024-03-06T02:11:03;5.20;;;4.70;;
28481;SDS011;15703;49.588;6.260;2024-03-06T02:13:26;6.83;;;4.93;;
28481;SDS011;15703;49.588;6.260;2024-03-06T02:15:48;5.23;;;4.83;;
28481;SDS011;15703;49.588;6.260;2024-03-06T02:18:11;5.57;;;4.90;;
28481;SDS011;15703;49.588;6.260;2024-03-06T02:20:34;5.70;;;5.13;;
28481;SDS011;15703;49.588;6.260;2024-03-06T02:22:56;5.80;;;5.20;;
28481;SDS011;15703;49.588;6.260;2024-03-06T02:25:19;6.37;;;4.87;;
28481;SDS011;15703;49.588;6.260;2024-03-06T02:27:41;6.17;;;5.10;;
28481;SDS011;15703;49.588;6.260;2024-03-06T02:30:04;5.10;;;4.70;;
28481;SDS011;15703;49.588;6.260;2024-03-06T02:32:27;9.00;;;4.97;;
28481;SDS011;15703;49.588;6.260;2024-03-06T02:34:51;5.77;;;5.13;;
28481;SDS011;15703;49.588;6.260;2024-03-06T02:37:13;5.60;;;5.10;;
28481;SDS011;15703;49.588;6.260;2024-03-06T02:39:35;5.90;;;5.30;;
28481;SDS011;15703;49.588;6.260;2024-03-06T02:41:58;5.83;;;5.23;;
28481;SDS011;15703;49.588;6.260;2024-03-06T02:44:21;5.10;;;4.60;;
28481;SDS011;15703;49.588;6.260;2024-03-06T02:46:50;6.20;;;5.20;;
28481;SDS011;15703;49.588;6.260;2024-03-06T02:49:12;5.67;;;4.73;;
28481;SDS011;15703;49.588;6.260;2024-03-06T02:51:35;5.77;;;4.93;;
28481;SDS011;15703;49.588;6.260;2024-03-06T02:53:58;5.90;;;5.27;;
28481;SDS011;15703;49.588;6.260;2024-03-06T02:56:20;5.30;;;4.80;;
28481;SDS011;15703;49.588;6.260;2024-03-06T02:58:42;5.97;;;4.93;;
28481;SDS011;15703;49.588;6.260;2024-03-06T03:01:05;6.77;;;5.43;;
28481;SDS011;15703;49.588;6.260;2024-03-06T03:03:30;5.87;;;5.13;;
28481;SDS011;15703;49.588;6.260;2024-03-06T03:05:52;6.00;;;5.40;;
28481;SDS011;15703;49.588;6.260;2024-03-06T03:08:15;5.80;;;5.30;;
28481;SDS011;15703;49.588;6.260;2024-03-06T03:10:40;5.60;;;5.03;;
28481;SDS011;15703;49.588;6.260;2024-03-06T03:13:03;6.73;;;5.97;;
28481;SDS011;15703;49.588;6.260;2024-03-06T03:15:26;5.77;;;5.17;;
28481;SDS011;15703;49.588;6.260;2024-03-06T03:17:48;5.17;;;4.67;;
28481;SDS011;15703;49.588;6.260;2024-03-06T03:20:11;5.77;;;5.20;;
28481;SDS011;15703;49.588;6.260;2024-03-06T03:22:33;5.97;;;5.27;;
28481;SDS011;15703;49.588;6.260;2024-03-06T03:24:56;10.70;;;5.70;;
28481;SDS011;15703;49.588;6.260;2024-03-06T03:27:18;5.77;;;5.10;;
28481;SDS011;15703;49.588;6.260;2024-03-06T03:29:40;6.70;;;5.13;;
28481;SDS011;15703;49.588;6.260;2024-03-06T03:32:03;5.40;;;4.90;;
28481;SDS011;15703;49.588;6.260;2024-03-06T03:34:26;5.93;;;5.37;;
28481;SDS011;15703;49.588;6.260;2024-03-06T03:36:48;5.53;;;4.77;;
28481;SDS011;15703;49.588;6.260;2024-03-06T03:39:11;5.70;;;5.10;;
28481;SDS011;15703;49.588;6.260;2024-03-06T03:41:45;5.73;;;5.13;;
28481;SDS011;15703;49.588;6.260;2024-03-06T03:44:08;5.40;;;4.90;;
28481;SDS011;15703;49.588;6.260;2024-03-06T03:46:30;5.50;;;5.00;;
28481;SDS011;15703;49.588;6.260;2024-03-06T03:48:52;6.40;;;5.23;;
28481;SDS011;15703;49.588;6.260;2024-03-06T03:51:15;5.90;;;4.87;;
28481;SDS011;15703;49.588;6.260;2024-03-06T03:53:38;5.00;;;4.53;;
28481;SDS011;15703;49.588;6.260;2024-03-06T03:56:00;5.30;;;4.87;;
28481;SDS011;15703;49.588;6.260;2024-03-06T03:58:24;5.17;;;4.67;;
28481;SDS011;15703;49.588;6.260;2024-03-06T04:00:47;5.50;;;5.00;;
28481;SDS011;15703;49.588;6.260;2024-03-06T04:03:13;5.07;;;4.57;;
28481;SDS011;15703;49.588;6.260;2024-03-06T04:05:35;5.80;;;4.83;;
28481;SDS011;15703;49.588;6.260;2024-03-06T04:07:58;7.17;;;5.33;;
28481;SDS011;15703;49.588;6.260;2024-03-06T04:10:21;6.30;;;4.93;;
28481;SDS011;15703;49.588;6.260;2024-03-06T04:12:43;7.77;;;5.50;;
28481;SDS011;15703;49.588;6.260;2024-03-06T04:15:05;6.27;;;5.67;;
28481;SDS011;15703;49.588;6.260;2024-03-06T04:17:29;7.53;;;5.53;;
28481;SDS011;15703;49.588;6.260;2024-03-06T04:19:51;6.53;;;5.30;;
28481;SDS011;15703;49.588;6.260;2024-03-06T04:22:14;6.47;;;5.83;;
28481;SDS011;15703;49.588;6.260;2024-03-06T04:24:40;7.90;;;6.23;;
28481;SDS011;15703;49.588;6.260;2024-03-06T04:27:03;7.87;;;6.53;;
28481;SDS011;15703;49.588;6.260;2024-03-06T04:29:26;7.83;;;6.20;;
28481;SDS011;15703;49.588;6.260;2024-03-06T04:31:48;8.67;;;6.93;;
28481;SDS011;15703;49.588;6.260;2024-03-06T04:34:11;7.93;;;6.37;;
28481;SDS011;15703;49.588;6.260;2024-03-06T04:36:33;8.00;;;6.60;;
28481;SDS011;15703;49.588;6.260;2024-03-06T04:38:55;8.40;;;6.73;;
28481;SDS011;15703;49.588;6.260;2024-03-06T04:41:18;7.20;;;6.13;;
28481;SDS011;15703;49.588;6.260;2024-03-06T04:43:41;8.67;;;6.30;;
28481;SDS011;15703;49.588;6.260;2024-03-06T04:46:04;9.27;;;7.00;;
28481;SDS011;15703;49.588;6.260;2024-03-06T04:48:26;8.00;;;6.83;;
28481;SDS011;15703;49.588;6.260;2024-03-06T04:50:49;6.50;;;5.90;;
28481;SDS011;15703;49.588;6.260;2024-03-06T04:53:11;7.73;;;6.37;;
28481;SDS011;15703;49.588;6.260;2024-03-06T04:55:34;8.03;;;7.10;;
28481;SDS011;15703;49.588;6.260;2024-03-06T04:57:58;9.37;;;6.53;;
28481;SDS011;15703;49.588;6.260;2024-03-06T05:00:21;7.93;;;6.60;;
28481;SDS011;15703;49.588;6.260;2024-03-06T05:02:43;6.80;;;6.10;;
28481;SDS011;15703;49.588;6.260;2024-03-06T05:05:24;8.27;;;6.73;;
28481;SDS011;15703;49.588;6.260;2024-03-06T05:08:04;8.30;;;6.53;;
28481;SDS011;15703;49.588;6.260;2024-03-06T05:10:46;8.70;;;6.80;;
28481;SDS011;15703;49.588;6.260;2024-03-06T05:13:26;9.97;;;7.03;;
28481;SDS011;15703;49.588;6.260;2024-03-06T05:16:06;8.33;;;7.47;;
28481;SDS011;15703;49.588;6.260;2024-03-06T05:18:48;8.03;;;7.17;;
28481;SDS011;15703;49.588;6.260;2024-03-06T05:21:28;8.13;;;7.27;;
28481;SDS011;15703;49.588;6.260;2024-03-06T05:24:08;12.03;;;8.17;;
28481;SDS011;15703;49.588;6.260;2024-03-06T05:26:48;10.40;;;8.23;;
28481;SDS011;15703;49.588;6.260;2024-03-06T05:29:28;11.40;;;8.03;;
28481;SDS011;15703;49.588;6.260;2024-03-06T05:32:08;10.30;;;7.97;;
28481;SDS011;15703;49.588;6.260;2024-03-06T05:34:48;11.07;;;7.97;;
28481;SDS011;15703;49.588;6.260;2024-03-06T05:37:28;14.50;;;8.37;;
28481;SDS011;15703;49.588;6.260;2024-03-06T05:40:08;11.33;;;9.40;;
28481;SDS011;15703;49.588;6.260;2024-03-06T05:42:48;30.40;;;10.43;;
28481;SDS011;15703;49.588;6.260;2024-03-06T05:45:28;25.93;;;10.60;;
28481;SDS011;15703;49.588;6.260;2024-03-06T05:48:08;13.23;;;10.87;;
28481;SDS011;15703;49.588;6.260;2024-03-06T05:50:48;23.50;;;10.83;;
28481;SDS011;15703;49.588;6.260;2024-03-06T05:53:28;14.60;;;9.50;;
28481;SDS011;15703;49.588;6.260;2024-03-06T05:56:08;11.93;;;9.53;;
28481;SDS011;15703;49.588;6.260;2024-03-06T05:58:48;11.23;;;10.10;;
28481;SDS011;15703;49.588;6.260;2024-03-06T06:01:10;11.10;;;10.00;;
28481;SDS011;15703;49.588;6.260;2024-03-06T06:03:33;12.17;;;10.40;;
28481;SDS011;15703;49.588;6.260;2024-03-06T06:05:55;12.23;;;10.63;;
28481;SDS011;15703;49.588;6.260;2024-03-06T06:08:19;12.80;;;11.40;;
28481;SDS011;15703;49.588;6.260;2024-03-06T06:10:41;16.87;;;11.33;;
28481;SDS011;15703;49.588;6.260;2024-03-06T06:13:04;13.10;;;11.37;;
28481;SDS011;15703;49.588;6.260;2024-03-06T06:15:26;13.70;;;11.70;;
28481;SDS011;15703;49.588;6.260;2024-03-06T06:17:49;14.13;;;12.40;;
28481;SDS011;15703;49.588;6.260;2024-03-06T06:20:12;12.80;;;11.50;;
28481;SDS011;15703;49.588;6.260;2024-03-06T06:22:39;13.90;;;12.37;;
28481;SDS011;15703;49.588;6.260;2024-03-06T06:25:02;13.50;;;12.10;;
28481;SDS011;15703;49.588;6.260;2024-03-06T06:27:24;15.33;;;12.57;;
28481;SDS011;15703;49.588;6.260;2024-03-06T06:29:47;13.83;;;12.33;;
28481;SDS011;15703;49.588;6.260;2024-03-06T06:32:09;19.20;;;11.80;;
28481;SDS011;15703;49.588;6.260;2024-03-06T06:34:32;29.50;;;12.03;;
28481;SDS011;15703;49.588;6.260;2024-03-06T06:36:55;26.13;;;11.20;;
28481;SDS011;15703;49.588;6.260;2024-03-06T06:39:17;33.40;;;12.07;;
28481;SDS011;15703;49.588;6.260;2024-03-06T06:41:40;17.10;;;10.43;;
28481;SDS011;15703;49.588;6.260;2024-03-06T06:44:02;10.00;;;8.90;;
28481;SDS011;15703;49.588;6.260;2024-03-06T06:46:25;13.13;;;9.67;;
28481;SDS011;15703;49.588;6.260;2024-03-06T06:48:47;12.67;;;10.80;;
28481;SDS011;15703;49.588;6.260;2024-03-06T06:51:10;25.17;;;10.77;;
28481;SDS011;15703;49.588;6.260;2024-03-06T06:53:32;16.13;;;10.30;;
28481;SDS011;15703;49.588;6.260;2024-03-06T06:55:55;22.70;;;8.90;;
28481;SDS011;15703;49.588;6.260;2024-03-06T06:58:18;9.60;;;7.73;;
28481;SDS011;15703;49.588;6.260;2024-03-06T07:00:41;20.80;;;8.87;;
28481;SDS011;15703;49.588;6.260;2024-03-06T07:03:04;7.83;;;7.03;;
28481;SDS011;15703;49.588;6.260;2024-03-06T07:05:26;7.83;;;7.03;;
28481;SDS011;15703;49.588;6.260;2024-03-06T07:07:49;9.43;;;7.37;;
28481;SDS011;15703;49.588;6.260;2024-03-06T07:10:15;9.10;;;7.77;;
28481;SDS011;15703;49.588;6.260;2024-03-06T07:12:38;8.47;;;7.63;;
28481;SDS011;15703;49.588;6.260;2024-03-06T07:15:01;9.87;;;8.37;;
28481;SDS011;15703;49.588;6.260;2024-03-06T07:17:24;43.20;;;10.40;;
28481;SDS011;15703;49.588;6.260;2024-03-06T07:19:46;9.17;;;7.27;;
28481;SDS011;15703;49.588;6.260;2024-03-06T07:22:09;19.80;;;8.00;;
28481;SDS011;15703;49.588;6.260;2024-03-06T07:24:31;41.57;;;11.87;;
28481;SDS011;15703;49.588;6.260;2024-03-06T07:26:57;50.77;;;10.63;;
28481;SDS011;15703;49.588;6.260;2024-03-06T07:29:19;37.00;;;8.60;;
28481;SDS011;15703;49.588;6.260;2024-03-06T07:31:42;7.30;;;6.70;;
28481;SDS011;15703;49.588;6.260;2024-03-06T07:34:06;20.03;;;9.33;;
28481;SDS011;15703;49.588;6.260;2024-03-06T07:36:29;8.50;;;7.70;;
28481;SDS011;15703;49.588;6.260;2024-03-06T07:38:53;13.37;;;8.13;;
28481;SDS011;15703;49.588;6.260;2024-03-06T07:41:16;10.80;;;7.43;;
28481;SDS011;15703;49.588;6.260;2024-03-06T07:43:38;12.23;;;8.40;;
28481;SDS011;15703;49.588;6.260;2024-03-06T07:46:02;12.67;;;8.63;;
28481;SDS011;15703;49.588;6.260;2024-03-06T07:48:24;9.13;;;8.33;;
28481;SDS011;15703;49.588;6.260;2024-03-06T07:50:47;28.40;;;10.70;;
28481;SDS011;15703;49.588;6.260;2024-03-06T07:53:09;13.13;;;8.40;;
28481;SDS011;15703;49.588;6.260;2024-03-06T07:55:31;72.60;;;17.93;;
28481;SDS011;15703;49.588;6.260;2024-03-06T07:57:54;9.70;;;8.27;;
28481;SDS011;15703;49.588;6.260;2024-03-06T08:00:16;9.70;;;8.70;;
28481;SDS011;15703;49.588;6.260;2024-03-06T08:02:41;15.47;;;8.90;;
28481;SDS011;15703;49.588;6.260;2024-03-06T08:05:11;13.03;;;8.73;;
28481;SDS011;15703;49.588;6.260;2024-03-06T08:07:34;8.63;;;7.83;;
28481;SDS011;15703;49.588;6.260;2024-03-06T08:09:56;24.53;;;8.83;;
28481;SDS011;15703;49.588;6.260;2024-03-06T08:12:18;33.83;;;11.27;;
28481;SDS011;15703;49.588;6.260;2024-03-06T08:14:41;7.60;;;6.67;;
28481;SDS011;15703;49.588;6.260;2024-03-06T08:17:03;16.23;;;9.00;;
28481;SDS011;15703;49.588;6.260;2024-03-06T08:19:26;138.90;;;23.37;;
28481;SDS011;15703;49.588;6.260;2024-03-06T08:21:48;7.93;;;7.23;;
28481;SDS011;15703;49.588;6.260;2024-03-06T08:24:11;36.97;;;10.97;;
28481;SDS011;15703;49.588;6.260;2024-03-06T08:26:33;25.03;;;9.87;;
28481;SDS011;15703;49.588;6.260;2024-03-06T08:28:56;9.77;;;6.60;;
28481;SDS011;15703;49.588;6.260;2024-03-06T08:31:18;29.13;;;10.23;;
28481;SDS011;15703;49.588;6.260;2024-03-06T08:33:43;9.10;;;7.10;;
28481;SDS011;15703;49.588;6.260;2024-03-06T08:36:06;15.27;;;7.67;;
28481;SDS011;15703;49.588;6.260;2024-03-06T08:38:28;6.27;;;5.33;;
28481;SDS011;15703;49.588;6.260;2024-03-06T08:40:51;15.77;;;8.03;;
28481;SDS011;15703;49.588;6.260;2024-03-06T08:43:14;17.83;;;8.00;;
28481;SDS011;15703;49.588;6.260;2024-03-06T08:45:37;23.53;;;8.07;;
28481;SDS011;15703;49.588;6.260;2024-03-06T08:47:59;6.80;;;6.00;;
28481;SDS011;15703;49.588;6.260;2024-03-06T08:50:22;10.40;;;6.00;;
28481;SDS011;15703;49.588;6.260;2024-03-06T08:52:44;16.07;;;7.33;;
28481;SDS011;15703;49.588;6.260;2024-03-06T08:55:07;9.20;;;6.30;;
28481;SDS011;15703;49.588;6.260;2024-03-06T08:57:30;22.40;;;8.40;;
28481;SDS011;15703;49.588;6.260;2024-03-06T08:59:53;21.63;;;7.97;;
28481;SDS011;15703;49.588;6.260;2024-03-06T09:02:17;19.37;;;6.87;;
28481;SDS011;15703;49.588;6.260;2024-03-06T09:04:41;5.50;;;5.00;;
28481;SDS011;15703;49.588;6.260;2024-03-06T09:07:03;31.70;;;8.47;;
28481;SDS011;15703;49.588;6.260;2024-03-06T09:09:28;6.17;;;5.47;;
28481;SDS011;15703;49.588;6.260;2024-03-06T09:11:50;46.60;;;10.47;;
28481;SDS011;15703;49.588;6.260;2024-03-06T09:14:13;18.20;;;7.07;;
28481;SDS011;15703;49.588;6.260;2024-03-06T09:16:36;18.93;;;7.57;;
28481;SDS011;15703;49.588;6.260;2024-03-06T09:18:58;18.43;;;7.20;;
28481;SDS011;15703;49.588;6.260;2024-03-06T09:21:20;37.83;;;9.03;;
28481;SDS011;15703;49.588;6.260;2024-03-06T09:23:43;8.27;;;6.93;;
28481;SDS011;15703;49.588;6.260;2024-03-06T09:26:05;19.90;;;7.83;;
28481;SDS011;15703;49.588;6.260;2024-03-06T09:28:28;20.23;;;7.67;;
28481;SDS011;15703;49.588;6.260;2024-03-06T09:30:51;8.83;;;7.00;;
28481;SDS011;15703;49.588;6.260;2024-03-06T09:33:13;13.20;;;7.90;;
28481;SDS011;15703;49.588;6.260;2024-03-06T09:35:35;6.97;;;6.30;;
28481;SDS011;15703;49.588;6.260;2024-03-06T09:37:58;7.07;;;6.37;;
28481;SDS011;15703;49.588;6.260;2024-03-06T09:40:23;7.97;;;7.17;;
28481;SDS011;15703;49.588;6.260;2024-03-06T09:42:46;7.90;;;7.07;;
28481;SDS011;15703;49.588;6.260;2024-03-06T09:45:08;8.80;;;7.43;;
28481;SDS011;15703;49.588;6.260;2024-03-06T09:47:31;7.97;;;7.10;;
28481;SDS011;15703;49.588;6.260;2024-03-06T09:49:54;8.30;;;7.23;;
28481;SDS011;15703;49.588;6.260;2024-03-06T09:52:16;9.23;;;6.93;;
28481;SDS011;15703;49.588;6.260;2024-03-06T09:54:39;8.60;;;7.20;;
28481;SDS011;15703;49.588;6.260;2024-03-06T09:57:03;8.00;;;7.20;;
28481;SDS011;15703;49.588;6.260;2024-03-06T09:59:25;14.17;;;8.70;;
28481;SDS011;15703;49.588;6.260;2024-03-06T10:01:55;11.37;;;8.70;;
28481;SDS011;15703;49.588;6.260;2024-03-06T10:04:27;8.23;;;7.40;;
28481;SDS011;15703;49.588;6.260;2024-03-06T10:06:49;8.50;;;7.70;;
28481;SDS011;15703;49.588;6.260;2024-03-06T10:09:11;8.20;;;7.10;;
28481;SDS011;15703;49.588;6.260;2024-03-06T10:11:38;10.87;;;9.43;;
28481;SDS011;15703;49.588;6.260;2024-03-06T10:14:00;13.47;;;10.03;;
28481;SDS011;15703;49.588;6.260;2024-03-06T10:16:22;13.03;;;10.23;;
28481;SDS011;15703;49.588;6.260;2024-03-06T10:18:45;12.40;;;9.50;;
28481;SDS011;15703;49.588;6.260;2024-03-06T10:21:07;9.37;;;8.47;;
28481;SDS011;15703;49.588;6.260;2024-03-06T10:23:30;10.53;;;9.40;;
28481;SDS011;15703;49.588;6.260;2024-03-06T10:25:52;11.73;;;9.97;;
28481;SDS011;15703;49.588;6.260;2024-03-06T10:28:15;9.63;;;8.57;;
28481;SDS011;15703;49.588;6.260;2024-03-06T10:30:38;11.23;;;9.50;;
28481;SDS011;15703;49.588;6.260;2024-03-06T10:33:04;20.50;;;13.93;;
28481;SDS011;15703;49.588;6.260;2024-03-06T10:35:28;11.57;;;9.70;;
28481;SDS011;15703;49.588;6.260;2024-03-06T10:37:50;10.43;;;8.30;;
28481;SDS011;15703;49.588;6.260;2024-03-06T10:40:14;15.13;;;11.40;;
28481;SDS011;15703;49.588;6.260;2024-03-06T10:42:38;10.57;;;8.90;;
28481;SDS011;15703;49.588;6.260;2024-03-06T10:45:02;8.40;;;7.57;;
28481;SDS011;15703;49.588;6.260;2024-03-06T10:47:26;8.93;;;7.23;;
28481;SDS011;15703;49.588;6.260;2024-03-06T10:49:50;9.57;;;7.82;;
28481;SDS011;15703;49.588;6.260;2024-03-06T10:52:15;9.57;;;6.43;;
28481;SDS011;15703;49.588;6.260;2024-03-06T10:54:38;7.90;;;6.72;;
28481;SDS011;15703;49.588;6.260;2024-03-06T10:57:03;7.85;;;6.53;;
28481;SDS011;15703;49.588;6.260;2024-03-06T10:59:26;7.30;;;6.63;;
28481;SDS011;15703;49.588;6.260;2024-03-06T11:01:52;7.60;;;6.80;;
28481;SDS011;15703;49.588;6.260;2024-03-06T11:04:15;7.82;;;6.47;;
28481;SDS011;15703;49.588;6.260;2024-03-06T11:06:38;6.28;;;5.47;;
28481;SDS011;15703;49.588;6.260;2024-03-06T11:09:01;5.50;;;5.00;;
28481;SDS011;15703;49.588;6.260;2024-03-06T11:11:24;8.88;;;5.82;;
28481;SDS011;15703;49.588;6.260;2024-03-06T11:13:47;5.70;;;4.72;;
28481;SDS011;15703;49.588;6.260;2024-03-06T11:16:10;5.30;;;4.53;;
28481;SDS011;15703;49.588;6.260;2024-03-06T11:23:23;7.13;;;4.68;;
28481;SDS011;15703;49.588;6.260;2024-03-06T11:28:28;6.15;;;5.05;;
28481;SDS011;15703;49.588;6.260;2024-03-06T11:30:55;5.32;;;4.35;;
28481;SDS011;15703;49.588;6.260;2024-03-06T11:33:21;5.18;;;4.10;;
28481;SDS011;15703;49.588;6.260;2024-03-06T11:36:29;5.43;;;4.90;;
28481;SDS011;15703;49.588;6.260;2024-03-06T11:38:28;6.85;;;5.40;;
28481;SDS011;15703;49.588;6.260;2024-03-06T11:40:51;5.22;;;4.72;;
28481;SDS011;15703;49.588;6.260;2024-03-06T11:43:24;8.50;;;5.60;;
28481;SDS011;15703;49.588;6.260;2024-03-06T11:45:48;5.00;;;3.95;;
28481;SDS011;15703;49.588;6.260;2024-03-06T11:48:11;5.70;;;4.80;;
28481;SDS011;15703;49.588;6.260;2024-03-06T11:50:41;5.45;;;4.18;;
28481;SDS011;15703;49.588;6.260;2024-03-06T11:53:04;5.28;;;4.50;;
28481;SDS011;15703;49.588;6.260;2024-03-06T11:55:30;6.32;;;4.30;;
28481;SDS011;15703;49.588;6.260;2024-03-06T11:57:52;4.43;;;4.00;;
28481;SDS011;15703;49.588;6.260;2024-03-06T12:00:15;5.30;;;4.47;;
28481;SDS011;15703;49.588;6.260;2024-03-06T12:02:37;3.85;;;3.33;;
28481;SDS011;15703;49.588;6.260;2024-03-06T12:05:01;4.75;;;3.67;;
28481;SDS011;15703;49.588;6.260;2024-03-06T12:07:24;3.55;;;3.20;;
28481;SDS011;15703;49.588;6.260;2024-03-06T12:09:47;3.25;;;2.50;;
28481;SDS011;15703;49.588;6.260;2024-03-06T12:12:09;3.33;;;2.47;;
28481;SDS011;15703;49.588;6.260;2024-03-06T12:14:34;2.75;;;2.47;;
28481;SDS011;15703;49.588;6.260;2024-03-06T12:17:01;5.75;;;3.60;;
28481;SDS011;15703;49.588;6.260;2024-03-06T12:19:26;5.50;;;3.05;;
28481;SDS011;15703;49.588;6.260;2024-03-06T12:21:52;4.35;;;3.30;;
28481;SDS011;15703;49.588;6.260;2024-03-06T12:24:16;3.75;;;2.88;;
28481;SDS011;15703;49.588;6.260;2024-03-06T12:26:40;3.78;;;3.40;;
28481;SDS011;15703;49.588;6.260;2024-03-06T12:29:06;5.00;;;3.40;;
28481;SDS011;15703;49.588;6.260;2024-03-06T12:31:28;4.38;;;2.83;;
28481;SDS011;15703;49.588;6.260;2024-03-06T12:33:56;4.03;;;2.60;;
28481;SDS011;15703;49.588;6.260;2024-03-06T12:36:25;4.60;;;2.60;;
28481;SDS011;15703;49.588;6.260;2024-03-06T12:38:53;3.22;;;2.05;;
28481;SDS011;15703;49.588;6.260;2024-03-06T12:41:16;2.80;;;2.03;;
28481;SDS011;15703;49.588;6.260;2024-03-06T12:43:39;4.38;;;2.35;;
28481;SDS011;15703;49.588;6.260;2024-03-06T12:46:01;3.05;;;2.28;;
28481;SDS011;15703;49.588;6.260;2024-03-06T12:48:26;2.53;;;1.65;;
28481;SDS011;15703;49.588;6.260;2024-03-06T12:50:51;2.80;;;1.88;;
28481;SDS011;15703;49.588;6.260;2024-03-06T12:53:15;3.97;;;1.95;;
28481;SDS011;15703;49.588;6.260;2024-03-06T12:55:38;2.17;;;1.75;;
28481;SDS011;15703;49.588;6.260;2024-03-06T12:58:00;2.13;;;1.50;;
28481;SDS011;15703;49.588;6.260;2024-03-06T13:00:23;2.25;;;1.40;;
28481;SDS011;15703;49.588;6.260;2024-03-06T13:02:46;3.83;;;1.70;;
28481;SDS011;15703;49.588;6.260;2024-03-06T13:05:09;1.63;;;1.42;;
28481;SDS011;15703;49.588;6.260;2024-03-06T13:07:32;1.73;;;1.30;;
28481;SDS011;15703;49.588;6.260;2024-03-06T13:09:54;1.63;;;1.17;;
28481;SDS011;15703;49.588;6.260;2024-03-06T13:12:16;2.22;;;1.50;;
28481;SDS011;15703;49.588;6.260;2024-03-06T13:14:39;2.92;;;1.75;;
28481;SDS011;15703;49.588;6.260;2024-03-06T13:17:02;5.05;;;2.35;;
28481;SDS011;15703;49.588;6.260;2024-03-06T13:19:24;4.13;;;1.90;;
28481;SDS011;15703;49.588;6.260;2024-03-06T13:21:47;2.22;;;2.03;;
28481;SDS011;15703;49.588;6.260;2024-03-06T13:24:09;3.40;;;2.10;;
28481;SDS011;15703;49.588;6.260;2024-03-06T13:26:32;3.75;;;2.10;;
28481;SDS011;15703;49.588;6.260;2024-03-06T13:28:54;3.95;;;1.80;;
28481;SDS011;15703;49.588;6.260;2024-03-06T13:31:16;3.08;;;2.20;;
28481;SDS011;15703;49.588;6.260;2024-03-06T13:33:40;2.90;;;2.00;;
28481;SDS011;15703;49.588;6.260;2024-03-06T13:36:02;2.45;;;1.80;;
28481;SDS011;15703;49.588;6.260;2024-03-06T13:38:26;1.92;;;1.73;;
28481;SDS011;15703;49.588;6.260;2024-03-06T13:40:49;2.35;;;1.48;;
28481;SDS011;15703;49.588;6.260;2024-03-06T13:43:12;4.03;;;1.90;;
28481;SDS011;15703;49.588;6.260;2024-03-06T13:45:34;1.73;;;1.35;;
28481;SDS011;15703;49.588;6.260;2024-03-06T13:48:13;1.63;;;1.52;;
28481;SDS011;15703;49.588;6.260;2024-03-06T13:50:39;2.72;;;1.70;;
28481;SDS011;15703;49.588;6.260;2024-03-06T13:53:01;1.77;;;1.42;;
28481;SDS011;15703;49.588;6.260;2024-03-06T13:55:24;1.45;;;1.33;;
28481;SDS011;15703;49.588;6.260;2024-03-06T13:57:49;1.73;;;1.60;;
28481;SDS011;15703;49.588;6.260;2024-03-06T14:00:12;3.17;;;1.58;;
28481;SDS011;15703;49.588;6.260;2024-03-06T14:02:39;1.92;;;1.58;;
28481;SDS011;15703;49.588;6.260;2024-03-06T14:16:33;1.08;;;1.05;;
28481;SDS011;15703;49.588;6.260;2024-03-06T14:18:56;1.90;;;1.15;;
28481;SDS011;15703;49.588;6.260;2024-03-06T14:21:18;2.47;;;1.23;;
28481;SDS011;15703;49.588;6.260;2024-03-06T14:23:41;3.20;;;1.35;;
28481;SDS011;15703;49.588;6.260;2024-03-06T14:26:05;2.63;;;1.38;;
28481;SDS011;15703;49.588;6.260;2024-03-06T14:28:27;2.55;;;1.65;;
28481;SDS011;15703;49.588;6.260;2024-03-06T14:30:50;1.73;;;1.40;;
28481;SDS011;15703;49.588;6.260;2024-03-06T14:33:12;1.50;;;1.17;;
28481;SDS011;15703;49.588;6.260;2024-03-06T14:35:35;3.22;;;1.50;;
28481;SDS011;15703;49.588;6.260;2024-03-06T14:37:58;1.48;;;1.10;;
28481;SDS011;15703;49.588;6.260;2024-03-06T14:40:21;1.55;;;1.15;;
28481;SDS011;15703;49.588;6.260;2024-03-06T14:42:43;2.40;;;1.25;;
28481;SDS011;15703;49.588;6.260;2024-03-06T14:45:06;2.55;;;1.05;;